Time;durP1;ratioP1;P1;durP2;ratioP2;P2;SDS_P1;SDS_P2;PMS_P1;PMS_P2;Temp;Humidity;BMP_temperature;BMP_pressure;BME280_temperature;BME280_humidity;BME280_pressure;Samples;Min_cycle;Max_cycle;Signal;HPM_P1;HPM_P2
2023/08/28 00:02:20;;;;;;;5.20;2.25;;;16.50;82.80;;;;;;4951561;28;20066;-83
2023/08/28 00:04:45;;;;;;;5.53;2.40;;;16.50;82.90;;;;;;4964100;28;20085;-84
2023/08/28 00:07:13;;;;;;;4.95;2.45;;;16.50;83.00;;;;;;4967605;28;20170;-83
2023/08/28 00:09:39;;;;;;;4.68;2.50;;;16.50;83.10;;;;;;4967357;28;20082;-83
2023/08/28 00:12:05;;;;;;;6.22;2.92;;;16.50;83.10;;;;;;4976601;28;20050;-82
2023/08/28 00:14:31;;;;;;;7.22;3.15;;;16.50;83.50;;;;;;4952517;28;20404;-84
2023/08/28 00:16:57;;;;;;;6.75;3.20;;;16.50;83.70;;;;;;4982923;28;20597;-83
2023/08/28 00:19:23;;;;;;;8.10;3.35;;;16.50;83.70;;;;;;4960479;28;20119;-84
2023/08/28 00:21:49;;;;;;;6.35;3.17;;;16.50;84.10;;;;;;4946386;28;20454;-84
2023/08/28 00:24:15;;;;;;;8.00;3.30;;;16.50;84.20;;;;;;4957192;28;20038;-84
2023/08/28 00:26:40;;;;;;;13.40;3.60;;;16.50;84.30;;;;;;4999185;28;20376;-83
2023/08/28 00:29:06;;;;;;;7.00;3.30;;;16.50;84.50;;;;;;4946003;28;20096;-84
2023/08/28 00:31:32;;;;;;;8.13;3.08;;;16.50;84.50;;;;;;4946521;28;20069;-84
2023/08/28 00:33:57;;;;;;;8.82;4.25;;;16.50;84.70;;;;;;4966167;28;20097;-84
2023/08/28 00:36:23;;;;;;;9.68;3.63;;;16.50;84.70;;;;;;4968315;28;20023;-84
2023/08/28 00:38:48;;;;;;;8.32;3.80;;;16.50;84.80;;;;;;4950558;28;20475;-83
2023/08/28 00:41:14;;;;;;;9.77;3.92;;;16.50;85.00;;;;;;4944737;28;20027;-83
2023/08/28 00:43:40;;;;;;;9.13;4.00;;;16.50;85.00;;;;;;4953413;28;20481;-83
2023/08/28 00:46:06;;;;;;;10.23;4.15;;;16.50;85.20;;;;;;4967820;28;20102;-84
2023/08/28 00:48:32;;;;;;;10.77;4.65;;;16.40;85.20;;;;;;4948524;28;20028;-84
2023/08/28 00:51:00;;;;;;;10.18;3.95;;;16.40;85.30;;;;;;4943747;28;20094;-84
2023/08/28 00:53:26;;;;;;;9.90;3.97;;;16.40;85.50;;;;;;4957714;28;20043;-84
2023/08/28 00:55:53;;;;;;;7.95;4.05;;;16.40;85.40;;;;;;4948796;28;20376;-80
2023/08/28 00:58:20;;;;;;;10.05;5.47;;;16.30;85.50;;;;;;4954464;28;20126;-84
2023/08/28 01:00:46;;;;;;;9.82;4.68;;;16.30;85.60;;;;;;4949604;28;20035;-84
2023/08/28 01:03:11;;;;;;;10.60;5.13;;;16.30;85.70;;;;;;4952705;28;20039;-83
2023/08/28 01:06:05;;;;;;;11.15;5.93;;;16.30;85.70;;;;;;4952072;28;20458;-83
2023/08/28 01:08:56;;;;;;;12.27;6.70;;;16.30;85.80;;;;;;4955197;28;20120;-84
2023/08/28 01:11:44;;;;;;;12.57;7.05;;;16.20;85.80;;;;;;4967735;28;20489;-83
2023/08/28 01:14:25;;;;;;;9.73;7.28;;;16.30;85.90;;;;;;4978969;28;20421;-83
2023/08/28 01:16:54;;;;;;;11.15;8.10;;;16.20;86.00;;;;;;4972733;28;20040;-78
2023/08/28 01:19:36;;;;;;;11.15;7.75;;;16.20;86.10;;;;;;4961499;28;20039;-84
2023/08/28 01:22:11;;;;;;;11.73;7.90;;;16.20;86.20;;;;;;4970795;28;20389;-84
2023/08/28 01:24:44;;;;;;;12.13;9.10;;;16.20;86.20;;;;;;4969433;28;20477;-84
2023/08/28 01:27:11;;;;;;;16.33;13.13;;;16.10;86.20;;;;;;4965519;28;20141;-84
2023/08/28 01:29:36;;;;;;;16.30;14.60;;;16.10;86.20;;;;;;4977101;28;20126;-84
2023/08/28 01:32:02;;;;;;;15.65;13.57;;;16.10;86.20;;;;;;4969201;28;20177;-84
2023/08/28 01:34:28;;;;;;;16.25;13.70;;;16.10;86.20;;;;;;4972913;28;20035;-79
2023/08/28 01:37:01;;;;;;;15.63;13.82;;;16.10;86.30;;;;;;4988904;28;20051;-83
2023/08/28 01:39:36;;;;;;;15.27;12.10;;;16.00;86.20;;;;;;4947253;28;20050;-78
2023/08/28 01:42:04;;;;;;;13.23;10.50;;;15.90;86.40;;;;;;4951315;28;20047;-84
2023/08/28 01:44:32;;;;;;;11.85;9.10;;;15.90;86.40;;;;;;4976068;28;20054;-80
2023/08/28 01:46:58;;;;;;;14.30;9.57;;;15.80;86.50;;;;;;4964309;28;20046;-83
2023/08/28 01:49:28;;;;;;;12.13;8.85;;;15.70;86.50;;;;;;4961005;28;20118;-80
2023/08/28 01:51:54;;;;;;;12.68;8.73;;;15.70;86.70;;;;;;4957588;28;20531;-83
2023/08/28 01:54:19;;;;;;;10.70;7.63;;;15.60;86.80;;;;;;4949743;28;20039;-79
2023/08/28 01:56:45;;;;;;;10.75;7.70;;;15.60;87.00;;;;;;4957076;28;20453;-81
2023/08/28 01:59:11;;;;;;;11.25;7.97;;;15.60;87.00;;;;;;4953470;28;20192;-83
2023/08/28 02:01:37;;;;;;;12.10;6.85;;;15.50;87.00;;;;;;4946995;28;20031;-83
2023/08/28 02:04:02;;;;;;;13.65;7.25;;;15.50;87.00;;;;;;4948343;28;20169;-83
2023/08/28 02:06:28;;;;;;;9.93;7.20;;;15.50;87.10;;;;;;4951415;28;20062;-83
2023/08/28 02:08:54;;;;;;;10.80;7.22;;;15.40;87.10;;;;;;4947261;28;20067;-83
2023/08/28 02:11:20;;;;;;;11.38;7.47;;;15.40;87.20;;;;;;4948914;28;20031;-80
2023/08/28 02:13:45;;;;;;;14.93;8.50;;;15.40;87.20;;;;;;4948381;28;20054;-84
2023/08/28 02:16:11;;;;;;;13.25;8.15;;;15.30;87.30;;;;;;4950203;28;20031;-83
2023/08/28 02:18:36;;;;;;;13.27;8.00;;;15.20;87.40;;;;;;4953298;28;20042;-83
2023/08/28 02:21:03;;;;;;;10.77;7.80;;;15.20;87.60;;;;;;4951199;28;20092;-80
2023/08/28 02:23:29;;;;;;;11.55;8.73;;;15.10;87.60;;;;;;4955356;28;20178;-83
2023/08/28 02:25:55;;;;;;;12.75;8.35;;;15.10;87.70;;;;;;4950687;28;20440;-84
2023/08/28 02:28:21;;;;;;;11.07;7.63;;;15.10;87.90;;;;;;4956650;28;20051;-83
2023/08/28 02:30:47;;;;;;;10.98;7.75;;;15.10;87.90;;;;;;4968331;28;20034;-82
2023/08/28 02:33:13;;;;;;;15.27;8.60;;;15.10;88.00;;;;;;4952479;28;20508;-83
2023/08/28 02:35:39;;;;;;;13.00;8.25;;;15.10;88.10;;;;;;4952927;28;20042;-83
2023/08/28 02:38:08;;;;;;;14.30;8.70;;;15.10;88.20;;;;;;4954419;28;20043;-81
2023/08/28 02:40:40;;;;;;;12.15;8.05;;;15.00;88.20;;;;;;4961579;28;20035;-84
2023/08/28 02:43:06;;;;;;;12.00;8.38;;;15.10;88.20;;;;;;4959161;28;20108;-78
2023/08/28 02:45:34;;;;;;;13.95;7.85;;;15.00;88.20;;;;;;4957941;28;20117;-83
2023/08/28 02:47:59;;;;;;;12.38;7.70;;;15.00;88.20;;;;;;4971015;28;20180;-79
2023/08/28 02:50:25;;;;;;;10.10;7.63;;;15.00;88.20;;;;;;4969862;28;20117;-83
2023/08/28 02:52:51;;;;;;;13.40;7.93;;;15.00;88.10;;;;;;4988926;28;20051;-82
2023/08/28 02:55:16;;;;;;;12.38;8.73;;;14.90;88.20;;;;;;4949910;28;20470;-82
2023/08/28 02:57:42;;;;;;;10.68;8.35;;;14.90;88.10;;;;;;4964249;28;20042;-83
2023/08/28 03:00:08;;;;;;;12.23;8.80;;;14.90;88.10;;;;;;4970376;28;20034;-80
2023/08/28 03:02:34;;;;;;;14.18;8.77;;;14.90;88.20;;;;;;4972527;28;20141;-83
2023/08/28 03:05:00;;;;;;;13.93;8.52;;;14.80;88.20;;;;;;4974543;28;20007;-79
2023/08/28 03:07:25;;;;;;;10.35;8.60;;;14.80;88.30;;;;;;4987155;28;20053;-81
2023/08/28 03:09:51;;;;;;;16.05;9.25;;;14.70;88.40;;;;;;4987438;28;20347;-78
2023/08/28 03:12:16;;;;;;;11.35;8.30;;;14.70;88.40;;;;;;4986210;28;20062;-78
2023/08/28 03:14:42;;;;;;;12.55;9.63;;;14.60;88.60;;;;;;4977479;28;20098;-81
2023/08/28 03:17:08;;;;;;;12.93;8.63;;;14.60;88.70;;;;;;4960897;28;20046;-83
2023/08/28 03:19:34;;;;;;;11.35;8.55;;;14.60;88.90;;;;;;4957995;28;20046;-82
2023/08/28 03:22:00;;;;;;;14.02;9.77;;;14.60;88.80;;;;;;4951574;28;20058;-79
2023/08/28 03:24:25;;;;;;;15.35;12.02;;;14.60;88.80;;;;;;4967583;28;20405;-83
2023/08/28 03:26:51;;;;;;;13.50;10.65;;;14.60;88.90;;;;;;4949738;28;20054;-79
2023/08/28 03:29:17;;;;;;;12.93;10.60;;;14.60;88.90;;;;;;4948438;28;20039;-83
2023/08/28 03:31:42;;;;;;;12.40;9.85;;;14.60;88.90;;;;;;4955472;28;20024;-84
2023/08/28 03:34:08;;;;;;;13.38;10.40;;;14.60;88.90;;;;;;4974243;28;20504;-83
2023/08/28 03:36:34;;;;;;;15.05;11.20;;;14.50;89.00;;;;;;4963741;28;20464;-83
2023/08/28 03:38:59;;;;;;;13.48;10.10;;;14.50;88.90;;;;;;4957795;28;20031;-84
2023/08/28 03:41:25;;;;;;;13.48;11.07;;;14.40;88.90;;;;;;4959673;28;20036;-83
2023/08/28 03:43:50;;;;;;;13.32;9.95;;;14.40;88.90;;;;;;4958169;28;20488;-84
2023/08/28 03:46:16;;;;;;;14.32;10.65;;;14.40;88.80;;;;;;4966725;28;20051;-84
2023/08/28 03:48:42;;;;;;;14.65;10.77;;;14.40;88.70;;;;;;4992633;28;20120;-84
2023/08/28 03:51:07;;;;;;;13.55;10.73;;;14.30;88.70;;;;;;4955183;28;20027;-80
2023/08/28 03:53:33;;;;;;;16.15;11.63;;;14.30;88.60;;;;;;4945353;28;20051;-84
2023/08/28 03:55:59;;;;;;;14.65;11.38;;;14.20;88.60;;;;;;4953806;28;20538;-84
2023/08/28 03:58:25;;;;;;;13.02;11.18;;;14.30;88.70;;;;;;4960438;28;20107;-78
2023/08/28 04:00:54;;;;;;;12.32;10.63;;;14.30;88.80;;;;;;4954919;28;20028;-83
2023/08/28 04:03:20;;;;;;;15.00;12.00;;;14.20;88.80;;;;;;4944537;28;20039;-80
2023/08/28 04:05:47;;;;;;;13.50;12.05;;;14.20;88.80;;;;;;4950518;28;20104;-83
2023/08/28 04:08:13;;;;;;;13.75;11.02;;;14.20;88.80;;;;;;4954848;28;20031;-84
2023/08/28 04:10:38;;;;;;;13.30;11.15;;;14.20;88.80;;;;;;4967486;28;20034;-81
2023/08/28 04:13:04;;;;;;;13.52;10.45;;;14.20;88.90;;;;;;4961399;28;20046;-83
2023/08/28 04:15:29;;;;;;;15.10;10.68;;;14.20;88.90;;;;;;4971401;28;20031;-83
2023/08/28 04:17:57;;;;;;;12.48;10.18;;;14.20;88.90;;;;;;4988950;28;20045;-83
2023/08/28 04:20:23;;;;;;;14.55;10.00;;;14.20;88.90;;;;;;4949321;28;20432;-81
2023/08/28 04:22:48;;;;;;;13.02;9.25;;;14.20;88.90;;;;;;4947441;28;20035;-82
2023/08/28 04:25:14;;;;;;;11.95;9.27;;;14.20;88.90;;;;;;4966394;28;20061;-83
2023/08/28 04:27:40;;;;;;;11.32;9.38;;;14.20;88.90;;;;;;4963447;28;20051;-81
2023/08/28 04:30:08;;;;;;;14.13;9.77;;;14.10;88.90;;;;;;4977217;28;20042;-83
2023/08/28 04:32:34;;;;;;;11.98;8.88;;;14.10;88.90;;;;;;4978559;28;20046;-82
2023/08/28 04:35:00;;;;;;;13.52;9.23;;;14.10;88.90;;;;;;4970914;28;20117;-83
2023/08/28 04:37:26;;;;;;;11.60;9.23;;;14.10;88.90;;;;;;4992373;28;20043;-78
2023/08/28 04:39:52;;;;;;;12.95;8.95;;;14.10;88.90;;;;;;4966922;28;20019;-84
2023/08/28 04:42:18;;;;;;;11.10;9.35;;;14.10;88.80;;;;;;4967853;28;20039;-84
2023/08/28 04:44:44;;;;;;;10.43;8.25;;;14.10;88.80;;;;;;4938108;28;20035;-83
2023/08/28 04:47:09;;;;;;;10.75;8.57;;;14.10;88.90;;;;;;4948505;28;20448;-81
2023/08/28 04:49:35;;;;;;;13.43;8.85;;;14.10;88.90;;;;;;4946258;28;20478;-84
2023/08/28 04:52:02;;;;;;;11.23;8.50;;;14.10;88.70;;;;;;4951908;28;20035;-83
2023/08/28 04:54:28;;;;;;;15.32;9.07;;;14.10;88.60;;;;;;4941942;28;20102;-84
2023/08/28 04:56:53;;;;;;;10.65;8.20;;;14.10;88.60;;;;;;4943267;28;21471;-84
2023/08/28 04:59:19;;;;;;;12.35;8.35;;;14.10;88.60;;;;;;4943500;28;20129;-84
2023/08/28 05:01:45;;;;;;;11.80;8.35;;;14.00;88.70;;;;;;4946533;28;20455;-82
2023/08/28 05:04:10;;;;;;;10.30;8.45;;;14.00;88.60;;;;;;4942600;28;20046;-83
2023/08/28 05:06:36;;;;;;;12.45;8.52;;;14.00;88.60;;;;;;4945526;28;20040;-83
2023/08/28 05:09:02;;;;;;;11.70;8.52;;;14.10;88.50;;;;;;4965922;28;20050;-83
2023/08/28 05:11:27;;;;;;;14.05;9.45;;;14.00;88.40;;;;;;4981905;28;20021;-83
2023/08/28 05:13:53;;;;;;;13.95;9.50;;;14.10;88.40;;;;;;4946990;28;20047;-81
2023/08/28 05:16:19;;;;;;;13.65;8.85;;;14.10;88.50;;;;;;4951125;28;20102;-83
2023/08/28 05:18:44;;;;;;;13.10;8.73;;;14.10;88.40;;;;;;4946731;28;20036;-83
2023/08/28 05:21:10;;;;;;;14.18;9.38;;;14.10;88.40;;;;;;4945750;28;20027;-83
2023/08/28 05:23:36;;;;;;;12.40;8.43;;;14.20;88.40;;;;;;4951690;28;20670;-81
2023/08/28 05:26:01;;;;;;;12.65;9.05;;;14.20;88.20;;;;;;4965923;28;20148;-83
2023/08/28 05:28:27;;;;;;;12.27;9.25;;;14.20;88.20;;;;;;4950754;28;20108;-84
2023/08/28 05:30:53;;;;;;;14.63;9.13;;;14.30;88.20;;;;;;4963181;28;20033;-85
2023/08/28 05:33:18;;;;;;;12.43;8.38;;;14.40;88.10;;;;;;4968164;28;20112;-83
2023/08/28 05:35:44;;;;;;;10.00;7.45;;;14.50;88.00;;;;;;4971051;28;20443;-83
2023/08/28 05:38:11;;;;;;;13.20;8.77;;;14.50;88.00;;;;;;4968857;28;20050;-83
2023/08/28 05:40:37;;;;;;;12.50;8.73;;;14.60;87.90;;;;;;4973320;28;20388;-83
2023/08/28 05:43:03;;;;;;;13.25;9.05;;;14.60;87.90;;;;;;4978013;28;20058;-79
2023/08/28 05:45:28;;;;;;;14.82;8.55;;;14.60;87.70;;;;;;4957481;28;20438;-84
2023/08/28 05:47:54;;;;;;;17.83;9.85;;;14.70;87.90;;;;;;4956692;28;20046;-83
2023/08/28 05:50:20;;;;;;;14.27;9.80;;;14.70;87.80;;;;;;4979912;28;20027;-80
2023/08/28 05:52:46;;;;;;;15.18;9.82;;;14.80;87.90;;;;;;4974158;28;20050;-83
2023/08/28 05:55:11;;;;;;;17.50;9.90;;;14.90;87.80;;;;;;4950962;28;20031;-80
2023/08/28 05:57:37;;;;;;;14.82;8.82;;;15.00;87.80;;;;;;4950480;28;20110;-84
2023/08/28 06:00:04;;;;;;;13.05;9.30;;;15.00;87.70;;;;;;4957061;28;20053;-80
2023/08/28 06:02:30;;;;;;;20.48;9.88;;;15.10;87.70;;;;;;4949594;28;20138;-83
2023/08/28 06:04:55;;;;;;;12.48;9.48;;;15.10;87.60;;;;;;4961311;28;20485;-84
2023/08/28 06:07:21;;;;;;;14.45;9.63;;;15.20;87.60;;;;;;4949489;28;20492;-83
2023/08/28 06:09:47;;;;;;;13.32;9.73;;;15.20;87.30;;;;;;4952144;28;20393;-82
2023/08/28 06:12:12;;;;;;;11.32;9.23;;;15.30;87.20;;;;;;4958601;28;20057;-81
2023/08/28 06:14:38;;;;;;;14.40;9.18;;;15.40;87.30;;;;;;4967576;28;20042;-85
2023/08/28 06:17:04;;;;;;;10.77;8.60;;;15.50;87.20;;;;;;4964042;28;20042;-84
2023/08/28 06:19:30;;;;;;;9.93;8.10;;;15.50;87.00;;;;;;4981877;28;20050;-83
2023/08/28 06:21:55;;;;;;;14.10;10.18;;;15.60;87.00;;;;;;4965428;28;20533;-82
2023/08/28 06:24:21;;;;;;;13.65;9.27;;;15.70;86.70;;;;;;4965925;28;20117;-84
2023/08/28 06:26:47;;;;;;;16.45;10.35;;;15.80;86.60;;;;;;4988247;28;20054;-78
2023/08/28 06:29:13;;;;;;;13.50;9.90;;;15.90;86.60;;;;;;5044774;28;20086;-83
2023/08/28 06:31:38;;;;;;;13.25;8.55;;;16.00;86.00;;;;;;5041392;28;20368;-83
2023/08/28 06:34:04;;;;;;;13.90;9.77;;;16.10;86.00;;;;;;4954297;28;20168;-83
2023/08/28 06:36:30;;;;;;;12.75;9.35;;;16.30;85.90;;;;;;4952340;28;20023;-83
2023/08/28 06:38:56;;;;;;;13.65;8.82;;;16.40;85.40;;;;;;4957147;28;20050;-83
2023/08/28 06:41:22;;;;;;;13.35;8.90;;;16.40;85.30;;;;;;4947641;28;20034;-83
2023/08/28 06:43:48;;;;;;;12.73;9.20;;;16.50;85.30;;;;;;4950704;28;20047;-84
2023/08/28 06:46:14;;;;;;;14.50;9.50;;;16.60;84.80;;;;;;4943767;28;20387;-82
2023/08/28 06:48:43;;;;;;;13.65;9.82;;;16.60;84.50;;;;;;4948149;28;20123;-82
2023/08/28 06:51:12;;;;;;;14.70;9.13;;;16.70;84.30;;;;;;4953046;28;20932;-83
2023/08/28 06:53:38;;;;;;;15.60;9.25;;;16.80;84.20;;;;;;4969187;28;20053;-83
2023/08/28 06:56:04;;;;;;;13.73;7.82;;;16.90;84.10;;;;;;4975193;28;20077;-82
2023/08/28 06:58:30;;;;;;;13.25;8.55;;;17.00;83.70;;;;;;4958940;28;20043;-79
2023/08/28 07:00:57;;;;;;;14.52;9.75;;;17.10;82.90;;;;;;4967780;28;20042;-75
2023/08/28 07:03:23;;;;;;;15.82;8.65;;;17.10;82.10;;;;;;4996257;28;20089;-75
2023/08/28 07:05:49;;;;;;;15.35;8.27;;;17.10;82.10;;;;;;4940674;28;20042;-76
2023/08/28 07:08:15;;;;;;;13.52;8.73;;;17.10;82.10;;;;;;4946235;28;20023;-75
2023/08/28 07:10:41;;;;;;;13.88;8.35;;;17.10;81.60;;;;;;4953834;28;20149;-75
2023/08/28 07:13:06;;;;;;;13.55;8.40;;;17.10;81.40;;;;;;4958203;28;20378;-77
2023/08/28 07:15:32;;;;;;;13.77;8.15;;;17.10;81.70;;;;;;4971708;28;20030;-74
2023/08/28 07:17:57;;;;;;;13.23;7.97;;;17.10;81.70;;;;;;4954970;28;20477;-75
2023/08/28 07:20:23;;;;;;;14.40;8.38;;;17.10;81.50;;;;;;4952659;28;20110;-74
2023/08/28 07:22:54;;;;;;;12.43;7.75;;;17.00;81.70;;;;;;4940749;28;20747;-75
2023/08/28 07:25:23;;;;;;;12.55;8.23;;;17.10;81.60;;;;;;4941483;28;20548;-76
2023/08/28 07:27:50;;;;;;;11.73;8.20;;;17.20;80.80;;;;;;4945271;28;20043;-76
2023/08/28 07:30:16;;;;;;;16.17;7.95;;;17.40;80.60;;;;;;4946362;28;20019;-75
2023/08/28 07:32:42;;;;;;;12.55;6.90;;;17.60;79.20;;;;;;4945780;28;20107;-76
2023/08/28 07:35:08;;;;;;;12.05;7.25;;;17.70;78.60;;;;;;4941953;28;20023;-75
2023/08/28 07:37:34;;;;;;;10.40;6.88;;;17.90;78.40;;;;;;4939671;28;20110;-75
2023/08/28 07:40:01;;;;;;;10.10;6.28;;;18.10;77.80;;;;;;4957592;28;20034;-75
2023/08/28 07:42:26;;;;;;;10.43;6.50;;;18.30;76.20;;;;;;4971425;28;20177;-75
2023/08/28 07:44:52;;;;;;;11.27;6.97;;;18.60;76.70;;;;;;4946311;28;20113;-74
2023/08/28 07:47:18;;;;;;;14.65;6.90;;;18.70;75.50;;;;;;4945785;28;20596;-74
2023/08/28 07:49:44;;;;;;;9.52;5.75;;;18.90;76.00;;;;;;4951026;28;20038;-73
2023/08/28 07:52:10;;;;;;;10.35;5.80;;;19.00;74.10;;;;;;4953006;28;20035;-74
2023/08/28 07:54:36;;;;;;;8.75;4.50;;;19.10;74.30;;;;;;4942588;28;20054;-76
2023/08/28 07:57:04;;;;;;;9.95;5.88;;;19.10;72.40;;;;;;4952459;28;20482;-75
2023/08/28 07:59:29;;;;;;;7.82;4.65;;;19.10;73.00;;;;;;4961408;28;20113;-75
2023/08/28 08:01:56;;;;;;;9.43;4.88;;;19.20;71.80;;;;;;4969922;28;20542;-74
2023/08/28 08:04:21;;;;;;;9.88;4.47;;;19.30;70.00;;;;;;4941663;28;20166;-75
2023/08/28 08:06:47;;;;;;;8.63;3.50;;;19.50;69.90;;;;;;4939127;28;20649;-75
2023/08/28 08:09:13;;;;;;;7.90;3.35;;;19.50;67.90;;;;;;4950577;28;20042;-75
2023/08/28 08:11:38;;;;;;;5.72;3.20;;;19.50;67.60;;;;;;4945049;28;20481;-76
2023/08/28 08:14:04;;;;;;;8.38;3.70;;;19.60;67.60;;;;;;4936469;28;20046;-75
2023/08/28 08:16:30;;;;;;;5.60;3.25;;;19.70;67.00;;;;;;4945172;28;20054;-76
2023/08/28 08:18:55;;;;;;;7.00;3.00;;;19.80;66.80;;;;;;4938464;28;20134;-76
2023/08/28 08:21:21;;;;;;;5.40;3.10;;;19.90;66.50;;;;;;4936962;28;20578;-75
2023/08/28 08:23:48;;;;;;;6.75;3.20;;;20.10;65.00;;;;;;4939798;28;20047;-74
2023/08/28 08:26:15;;;;;;;7.32;3.30;;;20.50;65.00;;;;;;4941908;28;20452;-75
2023/08/28 08:28:41;;;;;;;6.22;3.08;;;20.50;64.00;;;;;;4943445;28;20032;-75
2023/08/28 08:31:07;;;;;;;5.15;3.08;;;20.50;63.80;;;;;;4937502;28;20297;-75
2023/08/28 08:33:32;;;;;;;6.40;2.50;;;20.70;61.60;;;;;;4944759;28;20074;-76
2023/08/28 08:35:58;;;;;;;6.00;2.22;;;20.80;62.80;;;;;;4944835;28;20061;-76
2023/08/28 08:38:24;;;;;;;6.05;2.58;;;20.80;59.70;;;;;;4938379;28;20039;-77
2023/08/28 08:40:55;;;;;;;6.72;2.88;;;20.90;59.80;;;;;;4949427;28;20117;-77
2023/08/28 08:43:21;;;;;;;6.53;2.58;;;20.80;59.20;;;;;;4944314;28;20042;-78
2023/08/28 08:45:50;;;;;;;5.80;2.50;;;20.90;60.00;;;;;;4945574;28;20027;-80
2023/08/28 08:48:17;;;;;;;6.97;3.08;;;21.00;59.50;;;;;;4941331;28;20048;-79
2023/08/28 08:50:46;;;;;;;4.95;2.70;;;21.10;59.70;;;;;;4938684;28;20075;-78
2023/08/28 08:53:45;;;;;;;9.55;2.85;;;21.00;59.50;;;;;;4950122;28;20153;-80
2023/08/28 08:56:17;;;;;;;6.97;2.72;;;20.90;60.20;;;;;;4971150;28;20043;-80
2023/08/28 08:58:44;;;;;;;6.30;2.90;;;20.90;61.20;;;;;;4942448;28;20047;-79
2023/08/28 09:01:10;;;;;;;6.10;3.15;;;20.80;62.00;;;;;;4938328;28;20109;-79
2023/08/28 09:03:38;;;;;;;8.18;3.30;;;20.90;60.80;;;;;;4952344;28;20047;-79
2023/08/28 09:06:07;;;;;;;7.75;3.30;;;20.80;60.50;;;;;;4947011;28;20114;-75
2023/08/28 09:08:36;;;;;;;7.40;3.25;;;20.60;62.60;;;;;;4967808;28;20050;-75
2023/08/28 09:11:04;;;;;;;7.82;3.25;;;20.40;63.20;;;;;;4975494;28;20019;-74
2023/08/28 09:13:30;;;;;;;8.65;3.47;;;20.20;64.00;;;;;;4969825;28;20097;-75
2023/08/28 09:15:56;;;;;;;7.07;3.25;;;20.00;63.30;;;;;;4966560;28;20129;-74
2023/08/28 09:18:25;;;;;;;5.82;3.05;;;19.80;63.60;;;;;;4947775;28;20528;-75
2023/08/28 09:21:07;;;;;;;6.30;3.42;;;19.60;63.30;;;;;;4946698;28;20405;-75
2023/08/28 09:23:33;;;;;;;6.88;3.28;;;19.50;64.30;;;;;;4945687;28;20125;-75
2023/08/28 09:25:59;;;;;;;6.97;3.75;;;19.60;64.60;;;;;;4947551;28;20085;-74
2023/08/28 09:28:26;;;;;;;8.25;3.70;;;19.70;64.60;;;;;;4950638;28;20050;-75
2023/08/28 09:30:52;;;;;;;7.80;3.75;;;19.80;63.60;;;;;;4953943;28;20035;-74
2023/08/28 09:33:18;;;;;;;7.93;3.67;;;20.00;63.00;;;;;;4952464;28;20104;-74
2023/08/28 09:35:44;;;;;;;6.60;3.80;;;20.40;63.10;;;;;;4962827;28;20035;-74
2023/08/28 09:38:11;;;;;;;7.88;3.40;;;20.70;62.20;;;;;;4950843;28;20064;-74
2023/08/28 09:40:39;;;;;;;6.97;3.53;;;21.10;60.50;;;;;;4962217;28;20034;-74
2023/08/28 09:43:16;;;;;;;6.57;3.17;;;21.70;59.10;;;;;;4961840;28;20035;-75
2023/08/28 09:45:43;;;;;;;6.85;3.22;;;22.10;58.40;;;;;;4961248;28;20031;-74
2023/08/28 09:48:10;;;;;;;6.13;2.67;;;22.10;57.30;;;;;;4957834;28;20056;-75
2023/08/28 09:50:39;;;;;;;6.32;2.42;;;22.60;56.50;;;;;;4966126;28;20088;-74
2023/08/28 09:53:08;;;;;;;5.78;2.60;;;23.00;54.40;;;;;;4979337;28;20126;-75
2023/08/28 09:55:39;;;;;;;6.75;2.30;;;23.20;55.10;;;;;;4940096;28;20035;-74
2023/08/28 09:58:09;;;;;;;6.40;2.75;;;23.20;53.90;;;;;;4941733;28;20042;-75
2023/08/28 10:00:37;;;;;;;5.55;2.40;;;23.00;54.50;;;;;;4950311;28;20046;-74
2023/08/28 10:03:05;;;;;;;5.05;2.50;;;22.80;53.90;;;;;;4947900;28;20046;-74
2023/08/28 10:05:35;;;;;;;5.43;2.25;;;22.40;53.90;;;;;;4940432;28;20039;-73
2023/08/28 10:08:04;;;;;;;5.13;2.63;;;22.50;53.70;;;;;;4959091;28;20363;-73
2023/08/28 10:10:30;;;;;;;5.78;2.90;;;22.40;54.90;;;;;;4963347;28;20030;-75
2023/08/28 10:12:56;;;;;;;4.70;2.28;;;22.20;54.40;;;;;;4949309;28;20064;-75
2023/08/28 10:15:22;;;;;;;5.30;2.53;;;22.30;55.70;;;;;;4943648;28;21673;-75
2023/08/28 10:17:49;;;;;;;6.72;2.63;;;22.50;56.40;;;;;;4951116;28;20104;-75
2023/08/28 10:20:17;;;;;;;7.55;2.90;;;22.40;55.30;;;;;;4960697;28;20019;-74
2023/08/28 10:22:44;;;;;;;7.50;3.00;;;22.10;55.80;;;;;;4963755;28;20142;-74
2023/08/28 10:25:13;;;;;;;9.20;2.78;;;21.80;56.40;;;;;;4957365;28;20027;-75
2023/08/28 10:27:40;;;;;;;8.02;2.60;;;21.50;57.40;;;;;;4956772;28;20804;-74
2023/08/28 10:30:08;;;;;;;5.78;2.45;;;21.30;58.70;;;;;;4957585;28;20019;-75
2023/08/28 10:32:35;;;;;;;6.00;2.25;;;21.20;60.10;;;;;;4984664;28;20060;-75
2023/08/28 10:35:02;;;;;;;7.43;2.63;;;20.90;60.80;;;;;;4933734;28;20073;-75
2023/08/28 10:37:30;;;;;;;5.50;2.33;;;20.90;61.50;;;;;;4941624;28;20039;-74
2023/08/28 10:39:57;;;;;;;6.80;2.50;;;20.80;61.30;;;;;;4952619;28;20105;-74
2023/08/28 10:42:26;;;;;;;5.88;2.22;;;20.70;61.50;;;;;;4947676;28;20037;-74
2023/08/28 10:44:52;;;;;;;4.20;2.10;;;20.80;60.60;;;;;;4952818;28;20023;-74
2023/08/28 10:47:19;;;;;;;5.53;2.10;;;20.90;59.20;;;;;;4936333;28;20118;-74
2023/08/28 10:49:45;;;;;;;5.65;1.90;;;21.00;58.00;;;;;;4938947;28;20044;-74
2023/08/28 10:52:11;;;;;;;7.18;2.10;;;20.90;58.80;;;;;;4939783;28;20445;-75
2023/08/28 10:54:42;;;;;;;3.67;1.77;;;20.90;58.50;;;;;;4939646;28;20036;-74
2023/08/28 10:57:25;;;;;;;6.75;2.55;;;21.00;58.80;;;;;;4944651;28;20047;-73
2023/08/28 10:59:51;;;;;;;4.38;1.77;;;20.90;58.50;;;;;;4955574;28;20169;-75
2023/08/28 11:02:19;;;;;;;4.22;1.90;;;20.90;58.20;;;;;;4955562;28;20043;-74
2023/08/28 11:04:46;;;;;;;5.75;2.05;;;21.10;58.20;;;;;;4961493;28;20100;-74
2023/08/28 11:07:21;;;;;;;8.38;2.25;;;21.10;58.30;;;;;;4957688;28;20118;-74
2023/08/28 11:09:47;;;;;;;5.57;2.33;;;21.40;56.30;;;;;;4940185;28;20108;-75
2023/08/28 11:12:13;;;;;;;5.22;2.50;;;21.40;57.90;;;;;;4937725;28;20075;-75
2023/08/28 11:14:41;;;;;;;5.45;2.42;;;21.40;58.10;;;;;;4950544;28;20461;-75
2023/08/28 11:17:18;;;;;;;8.10;2.92;;;21.50;57.90;;;;;;4951674;28;20055;-74
2023/08/28 11:19:54;;;;;;;5.82;2.30;;;21.50;58.70;;;;;;4937944;28;20113;-74
2023/08/28 11:22:33;;;;;;;9.15;2.72;;;21.50;58.10;;;;;;4938840;28;20039;-75
2023/08/28 11:25:00;;;;;;;6.13;2.72;;;21.30;59.50;;;;;;4959056;28;20407;-76
2023/08/28 11:27:42;;;;;;;6.07;2.80;;;21.50;59.60;;;;;;4950386;28;20051;-74
2023/08/28 11:30:09;;;;;;;6.53;2.33;;;21.50;59.10;;;;;;4955453;28;20761;-74
2023/08/28 11:32:36;;;;;;;6.22;2.63;;;21.50;58.50;;;;;;4954791;28;20051;-73
2023/08/28 11:35:04;;;;;;;9.20;2.88;;;21.40;57.80;;;;;;4964495;28;20038;-73
2023/08/28 11:37:42;;;;;;;5.05;2.70;;;21.10;59.30;;;;;;4958802;28;20055;-75
2023/08/28 11:40:09;;;;;;;8.52;3.17;;;21.00;60.30;;;;;;4961826;28;20080;-74
2023/08/28 11:42:37;;;;;;;7.63;2.80;;;21.00;59.90;;;;;;4953426;28;20039;-74
2023/08/28 11:45:04;;;;;;;7.47;3.05;;;20.90;60.10;;;;;;4961996;28;20477;-74
2023/08/28 11:47:32;;;;;;;6.03;2.97;;;20.70;59.60;;;;;;4953854;28;20478;-75
2023/08/28 11:49:58;;;;;;;5.70;2.92;;;20.70;60.50;;;;;;4952059;28;21216;-74
2023/08/28 11:52:25;;;;;;;7.10;2.35;;;20.70;61.10;;;;;;4941327;28;20126;-74
2023/08/28 11:54:51;;;;;;;5.97;3.33;;;20.60;62.00;;;;;;4947946;28;20565;-74
2023/08/28 11:57:19;;;;;;;7.55;3.25;;;20.50;62.00;;;;;;4947204;28;20159;-74
2023/08/28 11:59:47;;;;;;;6.63;3.38;;;20.50;62.80;;;;;;4938053;28;20105;-74
2023/08/28 12:02:14;;;;;;;5.60;2.53;;;20.40;63.20;;;;;;4951059;28;20040;-75
2023/08/28 12:04:41;;;;;;;6.35;2.50;;;20.20;63.30;;;;;;4956105;28;20043;-75
2023/08/28 12:07:25;;;;;;;5.45;2.50;;;19.90;64.40;;;;;;4952673;28;20051;-74
2023/08/28 12:09:52;;;;;;;4.75;2.45;;;19.80;65.70;;;;;;4938191;28;20081;-73
2023/08/28 12:12:19;;;;;;;5.47;2.42;;;19.80;65.80;;;;;;4965039;28;20048;-74
2023/08/28 12:14:47;;;;;;;7.07;2.97;;;19.80;65.40;;;;;;5029434;28;20053;-74
2023/08/28 12:17:23;;;;;;;7.13;3.15;;;19.80;66.30;;;;;;5027235;28;20029;-74
2023/08/28 12:19:50;;;;;;;8.18;3.50;;;19.50;69.80;;;;;;4951397;28;20047;-74
2023/08/28 12:22:16;;;;;;;5.80;3.42;;;19.50;71.20;;;;;;4949395;28;20043;-75
2023/08/28 12:24:45;;;;;;;7.22;4.20;;;19.50;72.00;;;;;;4936623;28;20031;-73
2023/08/28 12:27:12;;;;;;;7.57;4.85;;;19.30;73.20;;;;;;4939018;28;20093;-75
2023/08/28 12:29:41;;;;;;;9.70;4.85;;;19.30;75.40;;;;;;4935216;28;20078;-74
2023/08/28 12:32:08;;;;;;;12.50;5.45;;;19.20;76.80;;;;;;4927973;28;20057;-73
2023/08/28 12:34:35;;;;;;;9.10;5.32;;;18.90;77.40;;;;;;4921102;28;20772;-75
2023/08/28 12:37:09;;;;;;;8.35;5.80;;;18.80;79.00;;;;;;4936551;28;20047;-74
2023/08/28 12:39:35;;;;;;;9.88;6.40;;;18.80;80.10;;;;;;4926176;28;20524;-74
2023/08/28 12:42:02;;;;;;;10.77;7.32;;;18.80;79.90;;;;;;4934885;28;20047;-74